Time;durP1;ratioP1;P1;durP2;ratioP2;P2;SDS_P1;SDS_P2;PMS_P1;PMS_P2;Temp;Humidity;BMP_temperature;BMP_pressure;BME280_temperature;BME280_humidity;BME280_pressure;Samples;Min_cycle;Max_cycle;Signal;HPM_P1;HPM_P2
2024/02/27 00:01:04;;;;;;;7.23;5.83;;;6.50;99.90;;;;;;476969;249;27889;-74
2024/02/27 00:03:07;;;;;;;7.10;5.72;;;6.50;99.90;;;;;;468059;253;28736;-74
2024/02/27 00:05:07;;;;;;;7.60;5.60;;;6.40;99.90;;;;;;476984;249;27921;-72
2024/02/27 00:07:08;;;;;;;8.35;5.68;;;6.50;99.90;;;;;;468091;251;28605;-72
2024/02/27 00:09:14;;;;;;;6.20;5.10;;;6.40;99.90;;;;;;476996;249;27445;-73
2024/02/27 00:11:12;;;;;;;8.80;6.60;;;6.40;99.90;;;;;;467688;254;28174;-72
2024/02/27 00:13:12;;;;;;;12.20;7.00;;;6.40;99.90;;;;;;476967;249;27512;-73
2024/02/27 00:15:13;;;;;;;8.90;6.50;;;6.40;99.90;;;;;;468129;251;28724;-74
2024/02/27 00:17:14;;;;;;;10.57;6.90;;;6.40;99.90;;;;;;476960;249;28061;-74
2024/02/27 00:19:16;;;;;;;12.07;7.07;;;6.30;99.90;;;;;;468102;253;28546;-72
2024/02/27 00:21:17;;;;;;;7.63;6.30;;;6.30;99.90;;;;;;477022;249;29459;-71
2024/02/27 00:23:18;;;;;;;7.80;6.17;;;6.30;99.90;;;;;;468128;251;28132;-74
2024/02/27 00:25:19;;;;;;;9.43;6.90;;;6.30;99.90;;;;;;477010;249;29308;-72
2024/02/27 00:27:21;;;;;;;9.10;7.00;;;6.20;99.90;;;;;;468079;251;27554;-72
2024/02/27 00:29:22;;;;;;;11.15;7.47;;;6.20;99.90;;;;;;476953;249;27446;-72
2024/02/27 00:31:23;;;;;;;10.83;7.50;;;6.20;99.90;;;;;;468174;251;27793;-73
2024/02/27 00:33:24;;;;;;;14.85;8.48;;;6.10;99.90;;;;;;477005;249;29199;-71
2024/02/27 00:35:26;;;;;;;11.00;7.67;;;6.20;99.90;;;;;;468111;251;27541;-71
2024/02/27 00:37:27;;;;;;;10.15;7.32;;;6.10;99.90;;;;;;476942;249;28770;-74
2024/02/27 00:39:28;;;;;;;9.18;7.10;;;6.20;99.90;;;;;;468145;251;27461;-72
2024/02/27 00:41:29;;;;;;;9.45;6.75;;;6.20;99.90;;;;;;477001;249;27512;-72
2024/02/27 00:43:31;;;;;;;9.10;6.80;;;6.20;99.90;;;;;;468105;251;27470;-72
2024/02/27 00:45:32;;;;;;;11.77;8.48;;;6.20;99.90;;;;;;476964;249;27950;-72
2024/02/27 00:47:33;;;;;;;11.20;7.97;;;6.20;99.90;;;;;;468089;251;28017;-73
2024/02/27 00:49:35;;;;;;;10.55;8.32;;;6.10;99.90;;;;;;477000;249;27442;-71
2024/02/27 00:51:36;;;;;;;11.27;7.68;;;6.10;99.90;;;;;;468133;251;27462;-71
2024/02/27 00:53:37;;;;;;;10.90;8.88;;;6.10;99.90;;;;;;476994;249;27529;-74
2024/02/27 00:55:38;;;;;;;10.57;8.10;;;6.10;99.90;;;;;;468122;251;27941;-71
2024/02/27 00:57:40;;;;;;;12.48;8.05;;;6.10;99.90;;;;;;476955;249;28001;-75
2024/02/27 00:59:41;;;;;;;15.82;9.70;;;6.10;99.90;;;;;;468104;251;27601;-74
2024/02/27 01:01:42;;;;;;;10.75;8.27;;;6.10;99.90;;;;;;477007;249;27533;-71
2024/02/27 01:03:43;;;;;;;12.05;8.75;;;6.10;99.90;;;;;;468077;253;27494;-71
2024/02/27 01:05:45;;;;;;;15.07;10.07;;;6.10;99.90;;;;;;477014;249;27402;-73
2024/02/27 01:07:46;;;;;;;14.48;9.57;;;6.00;99.90;;;;;;468088;251;28024;-74
2024/02/27 01:09:47;;;;;;;15.63;9.90;;;6.00;99.90;;;;;;476976;249;27470;-73
2024/02/27 01:11:48;;;;;;;13.80;9.85;;;6.00;99.90;;;;;;468099;251;27532;-72
2024/02/27 01:13:50;;;;;;;14.45;10.20;;;5.90;99.90;;;;;;477006;249;27514;-72
2024/02/27 01:15:51;;;;;;;14.00;9.98;;;5.90;99.90;;;;;;468144;251;27469;-71
2024/02/27 01:17:52;;;;;;;15.00;11.20;;;5.90;99.90;;;;;;476942;249;27930;-74
2024/02/27 01:19:53;;;;;;;15.23;9.30;;;5.80;99.90;;;;;;468092;253;27515;-73
2024/02/27 01:21:55;;;;;;;16.77;10.68;;;5.80;99.90;;;;;;476987;249;27548;-71
2024/02/27 01:23:56;;;;;;;16.40;11.05;;;5.80;99.90;;;;;;468148;251;27466;-75
2024/02/27 01:25:57;;;;;;;16.55;11.02;;;5.80;99.90;;;;;;476994;249;27411;-74
2024/02/27 01:27:59;;;;;;;17.83;11.05;;;5.80;99.90;;;;;;468063;251;27918;-73
2024/02/27 01:30:00;;;;;;;19.55;11.35;;;5.70;99.90;;;;;;476973;249;27889;-72
2024/02/27 01:32:01;;;;;;;18.70;12.10;;;5.80;99.90;;;;;;468132;251;27530;-74
2024/02/27 01:34:02;;;;;;;18.60;12.98;;;5.80;99.90;;;;;;476977;249;27485;-74
2024/02/27 01:36:04;;;;;;;19.25;12.85;;;5.80;99.90;;;;;;468140;251;27518;-70
2024/02/27 01:38:05;;;;;;;17.90;12.00;;;5.80;99.90;;;;;;476979;249;27923;-71
2024/02/27 01:40:06;;;;;;;19.05;11.85;;;5.70;99.90;;;;;;468160;251;27553;-73
2024/02/27 01:42:08;;;;;;;18.48;12.70;;;5.70;99.90;;;;;;477029;249;27398;-74
2024/02/27 01:44:09;;;;;;;20.77;12.90;;;5.70;99.90;;;;;;468113;251;27481;-74
2024/02/27 01:46:10;;;;;;;19.37;13.68;;;5.70;99.90;;;;;;477005;249;27501;-73
2024/02/27 01:48:12;;;;;;;22.75;14.18;;;5.70;99.90;;;;;;468105;251;27954;-74
2024/02/27 01:50:13;;;;;;;19.50;12.98;;;5.70;99.90;;;;;;476995;249;27529;-75
2024/02/27 01:52:14;;;;;;;20.92;13.52;;;5.70;99.90;;;;;;468129;251;27506;-73
2024/02/27 01:54:15;;;;;;;21.00;13.82;;;5.70;99.90;;;;;;476860;249;27454;-73
2024/02/27 01:56:16;;;;;;;21.73;13.68;;;5.60;99.90;;;;;;468135;251;27473;-71
2024/02/27 01:58:17;;;;;;;22.65;15.50;;;5.60;99.90;;;;;;476977;249;27968;-74
2024/02/27 02:00:20;;;;;;;24.87;15.50;;;5.60;99.90;;;;;;468131;251;27457;-73
2024/02/27 02:02:20;;;;;;;22.95;14.57;;;5.50;99.90;;;;;;476949;249;27403;-73
2024/02/27 02:04:21;;;;;;;20.85;14.70;;;5.50;99.90;;;;;;468073;251;27466;-73
2024/02/27 02:06:23;;;;;;;24.20;15.20;;;5.50;99.90;;;;;;477048;249;27663;-73
2024/02/27 02:08:24;;;;;;;20.33;14.43;;;5.50;99.90;;;;;;468115;253;28000;-73
2024/02/27 02:10:25;;;;;;;26.77;15.35;;;5.50;99.90;;;;;;476967;249;27478;-73
2024/02/27 02:12:26;;;;;;;22.83;15.63;;;5.50;99.90;;;;;;468093;251;27460;-73
2024/02/27 02:14:28;;;;;;;22.62;15.25;;;5.50;99.90;;;;;;477047;249;27560;-73
2024/02/27 02:16:29;;;;;;;21.83;15.55;;;5.50;99.90;;;;;;468175;251;27537;-73
2024/02/27 02:18:30;;;;;;;25.50;16.85;;;5.40;99.90;;;;;;477007;249;27972;-73
2024/02/27 02:20:31;;;;;;;22.95;15.07;;;5.40;99.90;;;;;;468151;251;27470;-73
2024/02/27 02:22:33;;;;;;;24.27;15.75;;;5.40;99.90;;;;;;477066;249;27545;-72
2024/02/27 02:24:35;;;;;;;25.60;17.30;;;5.40;99.90;;;;;;468156;251;27505;-73
2024/02/27 02:26:35;;;;;;;26.02;16.60;;;5.40;99.90;;;;;;477019;249;27431;-73
2024/02/27 02:28:36;;;;;;;35.45;18.23;;;5.40;99.90;;;;;;468114;251;27882;-73
2024/02/27 02:30:38;;;;;;;28.65;18.55;;;5.40;99.90;;;;;;477033;249;27446;-73
2024/02/27 02:32:39;;;;;;;25.08;16.73;;;5.40;99.90;;;;;;468191;251;27477;-74
2024/02/27 02:34:40;;;;;;;29.65;17.75;;;5.50;99.90;;;;;;477038;249;27413;-73
2024/02/27 02:36:42;;;;;;;26.37;16.73;;;5.50;99.90;;;;;;468142;251;27468;-72
2024/02/27 02:38:43;;;;;;;26.83;16.77;;;5.50;99.90;;;;;;476997;249;28731;-72
2024/02/27 02:40:44;;;;;;;29.12;19.05;;;5.50;99.90;;;;;;468192;251;27508;-73
2024/02/27 02:42:45;;;;;;;26.33;17.27;;;5.50;99.90;;;;;;477011;249;27502;-73
2024/02/27 02:44:47;;;;;;;27.95;18.92;;;5.50;99.90;;;;;;468150;251;27443;-72
2024/02/27 02:46:48;;;;;;;30.58;19.30;;;5.40;99.90;;;;;;476942;249;27554;-72
2024/02/27 02:48:49;;;;;;;33.60;21.65;;;5.40;99.90;;;;;;468132;251;27927;-74
2024/02/27 02:50:50;;;;;;;35.63;20.67;;;5.50;99.90;;;;;;476974;249;27849;-73
2024/02/27 02:52:52;;;;;;;33.28;21.98;;;5.40;99.90;;;;;;468066;251;27462;-74
2024/02/27 02:54:53;;;;;;;34.95;21.55;;;5.40;99.90;;;;;;476960;249;27406;-73
2024/02/27 02:56:54;;;;;;;38.47;24.40;;;5.40;99.90;;;;;;468115;251;27473;-73
2024/02/27 02:58:55;;;;;;;38.13;22.83;;;5.40;99.90;;;;;;477029;249;27893;-73
2024/02/27 03:00:57;;;;;;;41.90;23.67;;;5.50;99.90;;;;;;468136;251;28011;-72
2024/02/27 03:02:58;;;;;;;40.33;23.45;;;5.50;99.90;;;;;;476543;249;27462;-73
2024/02/27 03:04:59;;;;;;;41.67;24.45;;;5.40;99.90;;;;;;476996;249;27421;-72
2024/02/27 03:07:00;;;;;;;44.55;25.30;;;5.50;99.90;;;;;;468091;254;27494;-73
2024/02/27 03:09:02;;;;;;;41.63;25.25;;;5.50;99.90;;;;;;477015;249;27454;-73
2024/02/27 03:11:04;;;;;;;46.30;25.15;;;5.40;99.90;;;;;;468063;251;27993;-73
2024/02/27 03:13:04;;;;;;;46.00;24.20;;;5.40;99.90;;;;;;476912;249;27548;-72
2024/02/27 03:15:06;;;;;;;40.42;24.85;;;5.40;99.90;;;;;;468156;251;27493;-73
2024/02/27 03:17:07;;;;;;;42.80;24.55;;;5.50;99.90;;;;;;476981;249;27501;-73
2024/02/27 03:19:08;;;;;;;44.90;25.77;;;5.40;99.90;;;;;;468148;251;27538;-74
2024/02/27 03:21:09;;;;;;;46.40;27.10;;;5.40;99.90;;;;;;476979;249;27956;-72
2024/02/27 03:23:11;;;;;;;41.67;25.17;;;5.40;99.90;;;;;;468142;251;27422;-73
2024/02/27 03:25:12;;;;;;;42.65;24.55;;;5.40;99.90;;;;;;477011;249;27466;-73
2024/02/27 03:27:13;;;;;;;46.17;26.27;;;5.40;99.90;;;;;;468062;251;27554;-72
2024/02/27 03:29:14;;;;;;;46.05;27.35;;;5.40;99.90;;;;;;476993;249;27461;-72
2024/02/27 03:31:16;;;;;;;48.40;28.10;;;5.30;99.90;;;;;;468151;251;28119;-74
2024/02/27 03:33:17;;;;;;;47.38;27.87;;;5.40;99.90;;;;;;477030;249;27399;-73
2024/02/27 03:35:18;;;;;;;39.38;23.75;;;5.30;99.90;;;;;;468131;251;27450;-72
2024/02/27 03:37:19;;;;;;;50.47;27.70;;;5.40;99.90;;;;;;476944;249;27401;-72
2024/02/27 03:39:21;;;;;;;45.47;26.87;;;5.30;99.90;;;;;;468144;251;27482;-72
2024/02/27 03:41:22;;;;;;;47.75;29.80;;;5.30;99.90;;;;;;477016;249;27928;-73
2024/02/27 03:43:23;;;;;;;50.72;27.25;;;5.30;99.90;;;;;;468109;251;27976;-72
2024/02/27 03:45:24;;;;;;;44.55;27.42;;;5.30;99.90;;;;;;476990;249;27505;-73
2024/02/27 03:47:26;;;;;;;52.42;30.05;;;5.30;99.90;;;;;;468062;251;27438;-72
2024/02/27 03:49:27;;;;;;;50.50;28.70;;;5.30;99.90;;;;;;477037;249;27506;-73
2024/02/27 03:51:28;;;;;;;48.33;27.30;;;5.30;99.90;;;;;;468140;251;27942;-73
2024/02/27 03:53:30;;;;;;;46.75;28.38;;;5.30;99.90;;;;;;477015;249;27877;-72
2024/02/27 03:55:31;;;;;;;49.00;29.00;;;5.30;99.90;;;;;;468076;251;27561;-73
2024/02/27 03:57:32;;;;;;;48.70;28.23;;;5.20;99.90;;;;;;476997;249;27457;-73
2024/02/27 03:59:33;;;;;;;48.78;29.37;;;5.20;99.90;;;;;;468126;251;27494;-72
2024/02/27 04:01:35;;;;;;;54.38;30.65;;;5.30;99.90;;;;;;477002;249;27462;-73
2024/02/27 04:03:36;;;;;;;48.78;28.58;;;5.30;99.90;;;;;;468109;251;27897;-73
2024/02/27 04:05:37;;;;;;;53.33;30.65;;;5.30;99.90;;;;;;477032;249;27413;-72
2024/02/27 04:07:38;;;;;;;53.08;29.70;;;5.20;99.90;;;;;;468101;251;27476;-73
2024/02/27 04:09:40;;;;;;;53.17;30.25;;;5.30;99.90;;;;;;476988;249;27409;-72
2024/02/27 04:11:41;;;;;;;54.95;31.12;;;5.20;99.90;;;;;;468103;251;27537;-72
2024/02/27 04:13:42;;;;;;;53.92;31.20;;;5.20;99.90;;;;;;477008;249;28075;-74
2024/02/27 04:15:46;;;;;;;50.80;31.30;;;5.20;99.90;;;;;;468132;251;27544;-73
2024/02/27 04:17:45;;;;;;;54.13;30.23;;;5.20;99.90;;;;;;476818;249;27624;-73
2024/02/27 04:19:46;;;;;;;54.88;28.98;;;5.20;99.90;;;;;;468091;251;27420;-72
2024/02/27 04:21:47;;;;;;;53.75;30.20;;;5.20;99.90;;;;;;476987;249;27452;-72
2024/02/27 04:23:48;;;;;;;53.90;30.70;;;5.20;99.90;;;;;;468133;251;28870;-74
2024/02/27 04:25:50;;;;;;;54.80;30.73;;;5.20;99.90;;;;;;477004;249;27982;-72
2024/02/27 04:27:51;;;;;;;53.50;29.02;;;5.20;99.90;;;;;;468051;251;27445;-72
2024/02/27 04:29:52;;;;;;;55.42;32.25;;;5.10;99.90;;;;;;476982;249;27446;-72
2024/02/27 04:31:53;;;;;;;61.05;33.40;;;5.10;99.90;;;;;;468126;251;27477;-72
2024/02/27 04:33:55;;;;;;;55.95;32.17;;;5.10;99.90;;;;;;476969;249;27450;-72
2024/02/27 04:35:56;;;;;;;56.25;32.33;;;5.10;99.90;;;;;;468096;251;27994;-72
2024/02/27 04:37:57;;;;;;;56.70;32.95;;;5.10;99.90;;;;;;476931;249;27434;-73
2024/02/27 04:39:59;;;;;;;52.28;31.05;;;5.10;99.90;;;;;;468133;251;27448;-73
2024/02/27 04:42:00;;;;;;;60.08;31.40;;;5.10;99.90;;;;;;477018;249;27407;-73
2024/02/27 04:44:01;;;;;;;52.35;29.52;;;5.10;99.90;;;;;;468113;251;27577;-73
2024/02/27 04:46:02;;;;;;;56.45;31.55;;;5.00;99.90;;;;;;476962;249;27906;-72
2024/02/27 04:48:05;;;;;;;54.70;31.80;;;5.00;99.90;;;;;;468063;248;27969;-73
2024/02/27 04:50:05;;;;;;;54.10;30.25;;;5.00;99.90;;;;;;476938;249;27541;-74
2024/02/27 04:52:06;;;;;;;52.50;31.27;;;5.00;99.90;;;;;;468093;251;27422;-72
2024/02/27 04:54:07;;;;;;;49.50;31.80;;;5.00;99.90;;;;;;476969;249;27505;-72
2024/02/27 04:56:09;;;;;;;51.78;28.98;;;5.00;99.90;;;;;;468121;251;27506;-72
2024/02/27 04:58:10;;;;;;;48.42;30.25;;;5.00;99.90;;;;;;476973;249;27959;-72
2024/02/27 05:00:11;;;;;;;44.83;28.42;;;5.00;99.90;;;;;;468119;251;27451;-73
2024/02/27 05:02:13;;;;;;;43.17;26.42;;;5.00;99.90;;;;;;476963;249;27437;-72
2024/02/27 05:04:14;;;;;;;52.75;31.80;;;5.00;99.90;;;;;;468083;251;27444;-72
2024/02/27 05:06:15;;;;;;;61.08;31.40;;;5.00;99.90;;;;;;477024;249;27795;-73
2024/02/27 05:08:16;;;;;;;50.17;29.95;;;5.00;99.90;;;;;;468052;251;27497;-72
2024/02/27 05:10:17;;;;;;;53.97;31.37;;;5.00;99.90;;;;;;477010;249;27936;-73
2024/02/27 05:12:19;;;;;;;52.78;31.60;;;5.10;99.90;;;;;;468082;253;27426;-72
2024/02/27 05:14:20;;;;;;;52.05;30.92;;;5.10;99.90;;;;;;477019;249;27422;-72
2024/02/27 05:16:21;;;;;;;51.75;31.20;;;5.10;99.90;;;;;;468154;251;27576;-74
2024/02/27 05:18:23;;;;;;;51.17;30.70;;;5.00;99.90;;;;;;476950;249;27457;-72
2024/02/27 05:20:24;;;;;;;50.33;30.58;;;5.10;99.90;;;;;;468115;251;28000;-72
2024/02/27 05:22:25;;;;;;;47.67;28.55;;;5.10;99.90;;;;;;476987;249;27958;-73
2024/02/27 05:24:26;;;;;;;51.15;30.77;;;5.10;99.90;;;;;;468137;251;27504;-72
2024/02/27 05:26:28;;;;;;;53.45;32.22;;;5.10;99.90;;;;;;477015;249;27470;-73
2024/02/27 05:28:29;;;;;;;50.50;30.95;;;5.10;99.90;;;;;;468090;251;27429;-73
2024/02/27 05:30:30;;;;;;;50.60;30.02;;;5.10;99.90;;;;;;476975;249;27568;-73
2024/02/27 05:32:31;;;;;;;52.55;31.33;;;5.10;99.90;;;;;;468165;251;27945;-74
2024/02/27 05:34:33;;;;;;;50.95;30.77;;;5.10;99.90;;;;;;477000;249;27458;-73
2024/02/27 05:36:34;;;;;;;49.38;31.02;;;5.10;99.90;;;;;;468099;251;27461;-73
2024/02/27 05:38:35;;;;;;;52.22;30.92;;;5.10;99.90;;;;;;476944;249;27429;-72
2024/02/27 05:40:36;;;;;;;49.95;29.55;;;5.10;99.90;;;;;;468144;251;27518;-72
2024/02/27 05:42:38;;;;;;;49.92;29.55;;;5.10;99.90;;;;;;476845;249;27941;-73
2024/02/27 05:44:39;;;;;;;48.22;29.85;;;5.10;99.90;;;;;;468151;251;27870;-73
2024/02/27 05:46:40;;;;;;;51.60;29.67;;;5.20;99.90;;;;;;476990;249;27415;-73
2024/02/27 05:48:41;;;;;;;47.60;28.62;;;5.10;99.90;;;;;;468123;251;27478;-72
2024/02/27 05:50:43;;;;;;;49.28;29.65;;;5.10;99.90;;;;;;477011;249;27466;-72
2024/02/27 05:52:44;;;;;;;52.62;30.67;;;5.10;99.90;;;;;;468107;251;27473;-73
2024/02/27 05:54:46;;;;;;;45.33;28.92;;;5.00;99.90;;;;;;476973;249;27883;-73
2024/02/27 05:56:46;;;;;;;47.83;30.88;;;5.00;99.90;;;;;;468044;251;27457;-72
2024/02/27 05:58:48;;;;;;;48.85;30.48;;;5.00;99.90;;;;;;477023;249;27514;-74
2024/02/27 06:00:49;;;;;;;51.37;29.00;;;5.10;99.90;;;;;;468145;251;27501;-72
2024/02/27 06:02:50;;;;;;;54.97;31.00;;;5.00;99.90;;;;;;477013;249;27482;-72
2024/02/27 06:04:52;;;;;;;46.50;27.77;;;5.00;99.90;;;;;;468122;251;27458;-72
2024/02/27 06:06:53;;;;;;;52.55;29.83;;;5.10;99.90;;;;;;476983;249;27945;-73
2024/02/27 06:08:54;;;;;;;51.97;30.15;;;5.10;99.90;;;;;;468101;251;27585;-74
2024/02/27 06:10:55;;;;;;;50.08;30.00;;;5.10;99.90;;;;;;477011;249;27450;-73
2024/02/27 06:12:57;;;;;;;49.25;29.37;;;5.10;99.90;;;;;;468043;251;27446;-73
2024/02/27 06:14:58;;;;;;;48.33;29.92;;;5.10;99.90;;;;;;477040;249;27443;-74
2024/02/27 06:16:59;;;;;;;49.85;30.67;;;5.00;99.90;;;;;;468070;251;27983;-72
2024/02/27 06:19:00;;;;;;;46.42;29.42;;;5.00;99.90;;;;;;477012;249;27480;-73
2024/02/27 06:23:21;;;;;;;47.62;30.05;;;5.00;99.90;;;;;;477031;249;27979;-72
2024/02/27 06:25:22;;;;;;;51.40;29.92;;;5.00;99.90;;;;;;468125;251;27453;-73
2024/02/27 06:27:24;;;;;;;51.47;29.85;;;5.00;99.90;;;;;;476902;249;27399;-73
2024/02/27 06:29:25;;;;;;;46.03;29.10;;;5.00;99.90;;;;;;468073;251;27490;-73
2024/02/27 06:31:26;;;;;;;42.75;27.10;;;4.90;99.90;;;;;;477026;249;27438;-74
2024/02/27 06:33:27;;;;;;;49.83;30.20;;;4.90;99.90;;;;;;468098;251;27996;-73
2024/02/27 06:35:29;;;;;;;49.88;29.33;;;4.80;99.90;;;;;;476989;249;27533;-74
2024/02/27 06:37:30;;;;;;;51.33;30.15;;;4.80;99.90;;;;;;468074;251;27450;-72
2024/02/27 06:39:31;;;;;;;49.17;30.08;;;4.80;99.90;;;;;;477030;249;27407;-73
2024/02/27 06:41:32;;;;;;;50.22;31.12;;;4.80;99.90;;;;;;468142;251;27609;-74
2024/02/27 06:43:34;;;;;;;45.33;29.02;;;4.80;99.90;;;;;;476994;249;28069;-72
2024/02/27 06:45:35;;;;;;;49.00;30.40;;;4.80;99.90;;;;;;468136;251;28063;-73
2024/02/27 06:47:36;;;;;;;47.60;29.70;;;4.80;99.90;;;;;;477021;249;27426;-72
2024/02/27 06:49:37;;;;;;;49.55;28.77;;;4.70;99.90;;;;;;468177;251;27422;-73
2024/02/27 06:51:41;;;;;;;52.75;29.40;;;4.80;99.90;;;;;;477018;249;27484;-73
2024/02/27 06:53:42;;;;;;;48.97;28.92;;;4.80;99.90;;;;;;468021;254;27481;-73
2024/02/27 06:55:41;;;;;;;51.50;29.33;;;4.80;99.90;;;;;;476965;249;27902;-73
2024/02/27 06:57:43;;;;;;;43.05;27.45;;;4.80;99.90;;;;;;468141;251;27930;-75
2024/02/27 06:59:44;;;;;;;43.33;27.17;;;4.80;99.90;;;;;;477024;249;27402;-72
2024/02/27 07:01:45;;;;;;;49.65;29.50;;;4.80;99.90;;;;;;468131;251;27555;-73
2024/02/27 07:03:46;;;;;;;54.92;29.00;;;4.80;99.90;;;;;;477008;249;27409;-72
2024/02/27 07:05:48;;;;;;;45.45;27.85;;;4.80;99.90;;;;;;468153;251;27501;-73
2024/02/27 07:07:49;;;;;;;49.55;29.10;;;4.80;99.90;;;;;;476995;249;27922;-73
2024/02/27 07:09:50;;;;;;;46.03;29.37;;;4.80;99.90;;;;;;468120;251;27876;-72
2024/02/27 07:11:51;;;;;;;49.38;27.77;;;4.80;99.90;;;;;;477018;249;27453;-73
2024/02/27 07:13:53;;;;;;;50.97;29.98;;;4.80;99.90;;;;;;468154;251;27796;-72
2024/02/27 07:15:54;;;;;;;42.90;27.00;;;4.80;99.90;;;;;;477051;249;27402;-73
2024/02/27 07:17:55;;;;;;;49.35;30.58;;;4.80;99.90;;;;;;468090;251;27497;-73
2024/02/27 07:19:58;;;;;;;49.78;30.52;;;4.90;99.90;;;;;;476974;249;27994;-72
2024/02/27 07:21:58;;;;;;;43.42;27.30;;;4.90;99.90;;;;;;468051;254;27549;-72
2024/02/27 07:23:59;;;;;;;49.53;28.70;;;4.90;99.90;;;;;;477026;249;27542;-74
2024/02/27 07:26:00;;;;;;;43.05;26.85;;;4.90;99.90;;;;;;468117;254;27422;-72
2024/02/27 07:28:01;;;;;;;43.95;27.20;;;4.90;99.90;;;;;;476938;249;27442;-72
2024/02/27 07:30:04;;;;;;;42.88;26.12;;;4.90;99.90;;;;;;468154;251;28799;-72
2024/02/27 07:32:04;;;;;;;42.70;27.00;;;5.00;99.90;;;;;;476994;249;27523;-73
2024/02/27 07:34:05;;;;;;;44.22;27.20;;;5.00;99.90;;;;;;468104;251;27466;-74
2024/02/27 07:36:07;;;;;;;42.90;27.05;;;5.00;99.90;;;;;;477020;249;27486;-73
2024/02/27 07:38:08;;;;;;;43.28;25.90;;;4.90;99.90;;;;;;468045;251;27470;-72
2024/02/27 07:40:10;;;;;;;45.08;28.33;;;4.90;99.90;;;;;;477023;249;27523;-72
2024/02/27 07:42:10;;;;;;;41.35;26.65;;;5.00;99.90;;;;;;468118;251;28015;-72
2024/02/27 07:44:12;;;;;;;42.03;25.40;;;5.00;99.90;;;;;;476946;249;27426;-73
2024/02/27 07:46:13;;;;;;;44.58;26.77;;;5.00;99.90;;;;;;468088;251;27534;-72
2024/02/27 07:48:14;;;;;;;44.40;28.08;;;5.10;99.90;;;;;;476972;249;27533;-72
2024/02/27 07:50:17;;;;;;;40.72;24.55;;;5.10;99.90;;;;;;468141;251;27561;-72
2024/02/27 07:52:17;;;;;;;43.50;27.45;;;5.10;99.90;;;;;;476932;249;27871;-72
2024/02/27 07:54:18;;;;;;;43.85;27.02;;;5.20;99.90;;;;;;468080;251;28001;-73
2024/02/27 07:56:19;;;;;;;42.72;26.50;;;5.30;99.90;;;;;;477019;249;27495;-72
2024/02/27 07:58:20;;;;;;;40.08;24.55;;;5.20;99.90;;;;;;468111;251;27474;-72
2024/02/27 08:00:22;;;;;;;42.00;26.08;;;5.30;99.90;;;;;;477016;249;27541;-73
2024/02/27 08:02:24;;;;;;;42.85;24.77;;;5.30;99.90;;;;;;468115;251;27519;-72
2024/02/27 08:04:24;;;;;;;42.22;26.25;;;5.30;99.90;;;;;;476951;249;27937;-72
2024/02/27 08:06:27;;;;;;;42.42;25.45;;;5.30;99.90;;;;;;468145;251;27449;-74
2024/02/27 08:08:28;;;;;;;44.45;26.45;;;5.30;99.90;;;;;;476860;249;27402;-72
2024/02/27 08:10:28;;;;;;;41.40;26.48;;;5.40;99.90;;;;;;467960;251;27458;-73
2024/02/27 08:12:29;;;;;;;43.08;25.60;;;5.40;99.90;;;;;;476977;249;27403;-73
2024/02/27 08:14:32;;;;;;;44.75;27.77;;;5.40;99.90;;;;;;468098;251;27917;-73
2024/02/27 08:16:32;;;;;;;39.17;24.90;;;5.30;99.90;;;;;;476942;249;27505;-73
2024/02/27 08:18:33;;;;;;;40.40;25.48;;;5.40;99.90;;;;;;468038;251;27454;-72
2024/02/27 08:20:34;;;;;;;41.40;25.95;;;5.40;99.90;;;;;;476983;249;27438;-73
2024/02/27 08:22:36;;;;;;;38.67;23.55;;;5.40;99.90;;;;;;468150;251;28014;-73
2024/02/27 08:24:37;;;;;;;40.67;26.23;;;5.30;99.90;;;;;;476990;249;27406;-72
2024/02/27 08:26:39;;;;;;;39.88;25.23;;;5.30;99.90;;;;;;468102;251;27486;-73
2024/02/27 08:28:39;;;;;;;38.10;25.02;;;5.40;99.90;;;;;;476930;249;27402;-73
2024/02/27 08:30:41;;;;;;;39.90;25.00;;;5.50;99.90;;;;;;468110;251;27554;-72
2024/02/27 08:32:42;;;;;;;36.17;23.67;;;5.50;99.90;;;;;;477004;249;27938;-74
2024/02/27 08:34:43;;;;;;;38.10;23.85;;;5.50;99.90;;;;;;468091;251;27941;-72
2024/02/27 08:36:44;;;;;;;40.58;24.00;;;5.50;99.90;;;;;;476953;249;27478;-74
2024/02/27 08:38:46;;;;;;;36.50;22.67;;;5.50;99.90;;;;;;468028;251;27489;-72
2024/02/27 08:40:47;;;;;;;40.17;25.15;;;5.50;99.90;;;;;;477007;249;27405;-72
2024/02/27 08:42:48;;;;;;;37.75;24.60;;;5.60;99.90;;;;;;468111;251;27931;-73
2024/02/27 08:44:49;;;;;;;39.30;23.60;;;5.60;99.90;;;;;;476989;249;27949;-72
2024/02/27 08:46:51;;;;;;;43.10;25.77;;;5.50;99.90;;;;;;468056;251;27556;-73
2024/02/27 08:48:53;;;;;;;39.00;24.02;;;5.60;99.90;;;;;;477016;249;27429;-73
2024/02/27 08:50:53;;;;;;;47.92;25.20;;;5.50;99.90;;;;;;468119;251;27470;-73
2024/02/27 08:52:55;;;;;;;38.42;25.40;;;5.60;99.90;;;;;;476957;249;27933;-73
2024/02/27 08:54:56;;;;;;;37.17;25.20;;;5.80;99.90;;;;;;468098;251;27880;-73
2024/02/27 08:56:57;;;;;;;40.33;24.95;;;6.00;99.90;;;;;;476948;249;27407;-73
2024/02/27 08:58:58;;;;;;;35.28;23.50;;;6.00;99.90;;;;;;468135;251;27541;-73
2024/02/27 09:01:00;;;;;;;34.17;22.55;;;6.10;99.90;;;;;;476993;249;27401;-73
2024/02/27 09:03:01;;;;;;;33.70;23.15;;;5.90;99.90;;;;;;468082;251;27940;-73
2024/02/27 09:05:02;;;;;;;34.67;23.27;;;5.80;99.90;;;;;;477031;249;28075;-73
2024/02/27 09:07:03;;;;;;;37.83;22.90;;;5.80;99.90;;;;;;468096;251;27456;-72
2024/02/27 09:09:06;;;;;;;34.30;21.80;;;5.90;99.90;;;;;;477005;249;27458;-73
2024/02/27 09:11:06;;;;;;;30.08;20.10;;;5.90;99.90;;;;;;468084;251;27553;-72
2024/02/27 09:13:07;;;;;;;33.45;20.55;;;6.10;99.90;;;;;;476972;249;28032;-73
2024/02/27 09:15:09;;;;;;;36.65;21.33;;;6.20;99.90;;;;;;468164;251;27489;-74
2024/02/27 09:17:10;;;;;;;31.10;21.05;;;6.10;99.90;;;;;;476943;249;27411;-73
2024/02/27 09:19:11;;;;;;;30.97;19.43;;;6.40;99.90;;;;;;468110;251;27459;-73
2024/02/27 09:21:12;;;;;;;32.90;22.57;;;6.60;99.90;;;;;;476983;249;28772;-72
2024/02/27 09:23:13;;;;;;;31.27;21.10;;;6.60;99.90;;;;;;468139;251;28389;-73
2024/02/27 09:25:15;;;;;;;31.87;21.30;;;6.70;99.90;;;;;;476997;249;29020;-73
2024/02/27 09:27:16;;;;;;;31.07;20.30;;;6.60;99.90;;;;;;468069;251;27665;-73
2024/02/27 09:29:17;;;;;;;31.02;20.50;;;6.40;99.90;;;;;;476973;249;27808;-73
2024/02/27 09:31:19;;;;;;;33.20;20.40;;;6.40;99.90;;;;;;468149;251;27940;-75
2024/02/27 09:33:20;;;;;;;35.88;19.98;;;6.30;99.90;;;;;;476984;249;27889;-72
2024/02/27 09:35:21;;;;;;;31.73;20.07;;;6.30;99.90;;;;;;468121;251;27474;-73
2024/02/27 09:37:22;;;;;;;30.00;19.97;;;6.20;99.90;;;;;;476930;249;28101;-73
2024/02/27 09:39:24;;;;;;;32.13;22.10;;;6.30;99.90;;;;;;468119;251;28196;-73
2024/02/27 09:41:25;;;;;;;30.80;20.80;;;6.40;99.90;;;;;;477017;249;28101;-74
2024/02/27 09:43:26;;;;;;;29.27;20.00;;;6.60;99.90;;;;;;468100;251;27996;-72
2024/02/27 09:45:28;;;;;;;31.73;20.23;;;6.70;99.90;;;;;;476977;249;28817;-73
2024/02/27 09:47:29;;;;;;;30.57;19.40;;;6.80;99.90;;;;;;468063;251;27779;-72
2024/02/27 09:49:30;;;;;;;28.80;19.50;;;6.70;99.90;;;;;;477003;249;27871;-73
2024/02/27 09:51:31;;;;;;;32.37;19.50;;;6.80;99.90;;;;;;468118;251;28047;-73
2024/02/27 09:53:32;;;;;;;28.90;19.83;;;6.90;99.90;;;;;;476956;249;28007;-72
2024/02/27 09:55:34;;;;;;;27.23;19.57;;;6.90;99.90;;;;;;468070;251;28605;-73
2024/02/27 09:57:37;;;;;;;27.97;18.83;;;6.70;99.90;;;;;;476976;249;28447;-75
2024/02/27 09:59:38;;;;;;;27.97;18.27;;;6.60;99.90;;;;;;468072;254;28428;-72
2024/02/27 10:01:37;;;;;;;26.23;17.67;;;6.70;99.90;;;;;;476895;249;27880;-72
2024/02/27 10:03:41;;;;;;;33.33;18.07;;;6.90;99.90;;;;;;476479;249;27592;-73
2024/02/27 10:05:40;;;;;;;27.23;18.43;;;7.00;99.90;;;;;;476785;249;28582;-73
2024/02/27 10:07:44;;;;;;;26.97;19.17;;;7.10;99.90;;;;;;468102;251;27679;-74
2024/02/27 10:09:42;;;;;;;26.60;17.83;;;7.30;99.90;;;;;;476865;249;28008;-73
2024/02/27 10:11:44;;;;;;;25.67;17.63;;;7.30;99.90;;;;;;468099;251;28098;-73
2024/02/27 10:13:45;;;;;;;29.80;19.70;;;7.40;99.90;;;;;;476945;249;29973;-72
2024/02/27 10:15:46;;;;;;;27.90;18.07;;;7.40;99.90;;;;;;468110;251;28379;-73
2024/02/27 10:17:47;;;;;;;25.53;17.03;;;7.30;99.90;;;;;;476958;249;28360;-73
2024/02/27 10:19:49;;;;;;;25.57;17.87;;;7.60;99.90;;;;;;468080;251;27985;-73
2024/02/27 10:21:50;;;;;;;28.00;17.10;;;7.80;99.90;;;;;;476960;249;27789;-73
2024/02/27 10:23:51;;;;;;;24.10;16.57;;;7.80;99.90;;;;;;468124;251;28112;-73
2024/02/27 10:25:52;;;;;;;26.97;16.93;;;7.80;99.90;;;;;;477025;249;28031;-73